Time;durP1;ratioP1;P1;durP2;ratioP2;P2;SDS_P1;SDS_P2;PMS_P1;PMS_P2;Temp;Humidity;BMP_temperature;BMP_pressure;BME280_temperature;BME280_humidity;BME280_pressure;Samples;Min_cycle;Max_cycle;Signal;HPM_P1;HPM_P2
2022/06/11 00:01:40;;;;;;;5.35;1.60;;;18.00;99.90;;;;;;5089448;28;20036;-80
2022/06/11 00:04:10;;;;;;;4.85;2.00;;;18.00;99.90;;;;;;5090756;28;20048;-79
2022/06/11 00:06:41;;;;;;;6.75;1.92;;;17.90;99.90;;;;;;5091507;28;20024;-81
2022/06/11 00:09:08;;;;;;;3.30;1.83;;;17.80;99.90;;;;;;5091976;28;20024;-81
2022/06/11 00:11:34;;;;;;;6.88;2.22;;;17.70;99.90;;;;;;5092959;28;20484;-80
2022/06/11 00:13:59;;;;;;;4.60;2.08;;;17.70;99.90;;;;;;5109345;28;20024;-80
2022/06/11 00:16:26;;;;;;;5.70;2.13;;;17.60;99.90;;;;;;5093139;28;20024;-81
2022/06/11 00:18:56;;;;;;;2.75;1.80;;;17.60;99.90;;;;;;5093093;28;20046;-80
2022/06/11 00:21:25;;;;;;;4.40;2.20;;;17.50;99.90;;;;;;5075227;28;20036;-80
2022/06/11 00:23:51;;;;;;;7.03;2.15;;;17.50;99.90;;;;;;5075015;28;20024;-81
2022/06/11 00:26:17;;;;;;;4.07;1.85;;;17.40;99.90;;;;;;5092781;28;20046;-80
2022/06/11 00:28:43;;;;;;;3.72;1.95;;;17.40;99.90;;;;;;5090822;28;20090;-80
2022/06/11 00:31:10;;;;;;;4.00;2.03;;;17.40;99.90;;;;;;5091751;28;20042;-79
2022/06/11 00:33:36;;;;;;;5.63;1.98;;;17.30;99.90;;;;;;5092602;28;20107;-79
2022/06/11 00:36:04;;;;;;;4.10;1.90;;;17.30;99.90;;;;;;5092891;28;20020;-77
2022/06/11 00:38:30;;;;;;;3.75;2.20;;;17.40;99.90;;;;;;5074249;28;20088;-80
2022/06/11 00:40:56;;;;;;;2.85;1.88;;;17.30;99.90;;;;;;5074568;28;20525;-78
2022/06/11 00:43:27;;;;;;;3.40;1.88;;;17.40;99.90;;;;;;5092315;28;20024;-79
2022/06/11 00:46:27;;;;;;;2.85;1.77;;;17.40;99.90;;;;;;5073950;28;20020;-77
2022/06/11 00:48:52;;;;;;;4.50;1.90;;;17.40;99.90;;;;;;5091698;28;20078;-78
2022/06/11 00:51:21;;;;;;;6.03;2.03;;;17.40;99.90;;;;;;5091537;28;20032;-77
2022/06/11 00:53:52;;;;;;;6.38;2.50;;;17.40;99.90;;;;;;5074193;28;20047;-77
2022/06/11 00:56:37;;;;;;;4.97;1.90;;;17.40;99.90;;;;;;5093171;28;20035;-77
2022/06/11 00:59:06;;;;;;;2.60;2.10;;;17.40;99.90;;;;;;5074433;28;20024;-77
2022/06/11 01:01:32;;;;;;;3.60;2.10;;;17.40;99.90;;;;;;5074220;28;20032;-77
2022/06/11 01:04:00;;;;;;;4.82;2.10;;;17.30;99.90;;;;;;5074847;28;20028;-77
2022/06/11 01:06:52;;;;;;;6.13;2.30;;;17.30;99.90;;;;;;5075043;28;20025;-77
2022/06/11 01:09:23;;;;;;;;;;;17.30;99.90;;;;;;5075227;28;20035;-77
2022/06/11 01:12:14;;;;;;;4.25;2.00;;;17.20;99.90;;;;;;5092451;28;20003;-77
2022/06/11 01:14:46;;;;;;;4.38;2.40;;;17.30;99.90;;;;;;5078580;28;20421;-77
2022/06/11 01:17:20;;;;;;;;;;;17.30;99.90;;;;;;5096110;28;20024;-77
2022/06/11 01:20:29;;;;;;;2.80;1.83;;;17.40;99.90;;;;;;5094914;28;20383;-77
2022/06/11 01:23:17;;;;;;;4.10;1.90;;;17.30;99.90;;;;;;5096584;28;20040;-78
2022/06/11 01:25:49;;;;;;;5.90;2.25;;;17.30;99.90;;;;;;5095043;28;20024;-78
2022/06/11 01:28:47;;;;;;;;;;;17.30;99.90;;;;;;5096723;28;20020;-77
2022/06/11 01:31:22;;;;;;;4.57;2.00;;;17.30;99.90;;;;;;5034056;28;19905;-77
2022/06/11 01:34:31;;;;;;;2.83;1.98;;;17.20;99.90;;;;;;5001499;28;20373;-77
2022/06/11 01:37:06;;;;;;;6.50;2.40;;;17.20;99.90;;;;;;4985237;28;20025;-77
2022/06/11 01:39:38;;;;;;;6.03;2.28;;;17.20;99.90;;;;;;5016439;28;20033;-78
2022/06/11 01:42:21;;;;;;;4.03;1.65;;;17.10;99.90;;;;;;5018131;28;20084;-77
2022/06/11 01:45:00;;;;;;;4.45;1.92;;;17.00;99.90;;;;;;5033349;28;20064;-77
2022/06/11 01:47:25;;;;;;;3.10;1.98;;;17.00;99.90;;;;;;5017084;28;20124;-77
2022/06/11 01:49:51;;;;;;;5.15;1.98;;;16.90;99.90;;;;;;5033040;28;20172;-77
2022/06/11 01:52:39;;;;;;;4.10;2.15;;;16.90;99.90;;;;;;5000576;28;20037;-78
2022/06/11 01:55:21;;;;;;;3.25;2.25;;;16.90;99.90;;;;;;5016882;28;20048;-77
2022/06/11 01:57:50;;;;;;;4.63;2.25;;;16.80;99.90;;;;;;5016346;28;20609;-77
2022/06/11 02:00:26;;;;;;;4.30;2.25;;;16.80;99.90;;;;;;5033354;28;20100;-77
2022/06/11 02:03:15;;;;;;;4.75;2.22;;;16.80;99.90;;;;;;5033144;28;20025;-77
2022/06/11 02:05:59;;;;;;;2.53;2.00;;;16.90;99.90;;;;;;5018159;28;20025;-77
2022/06/11 02:08:39;;;;;;;2.97;2.10;;;16.90;99.90;;;;;;5094442;28;20024;-78
2022/06/11 02:11:18;;;;;;;4.03;2.10;;;16.80;99.90;;;;;;5095909;28;20024;-77
2022/06/11 02:14:23;;;;;;;4.22;2.10;;;16.70;99.90;;;;;;5094128;28;20020;-78
2022/06/11 02:16:51;;;;;;;6.38;2.30;;;16.60;99.90;;;;;;5094162;28;20036;-77
2022/06/11 02:19:21;;;;;;;5.75;2.25;;;16.70;99.90;;;;;;5094692;28;20024;-78
2022/06/11 02:21:56;;;;;;;3.83;2.20;;;16.70;99.90;;;;;;5094107;28;20487;-78
2022/06/11 02:24:34;;;;;;;5.50;2.10;;;16.70;99.90;;;;;;5111578;28;20032;-78
2022/06/11 02:27:04;;;;;;;3.75;2.10;;;16.70;99.90;;;;;;5093685;28;20032;-77
2022/06/11 02:29:31;;;;;;;3.70;2.40;;;16.70;99.90;;;;;;5095514;28;20049;-77
2022/06/11 02:32:04;;;;;;;5.07;2.10;;;16.70;99.90;;;;;;5095460;28;20481;-78
2022/06/11 02:34:30;;;;;;;4.75;2.25;;;16.60;99.90;;;;;;5095379;28;20028;-77
2022/06/11 02:37:03;;;;;;;4.28;2.58;;;16.60;99.90;;;;;;5094870;28;20016;-77
2022/06/11 02:39:34;;;;;;;4.15;2.00;;;16.60;99.90;;;;;;5094080;28;20039;-77
2022/06/11 02:42:01;;;;;;;3.30;2.33;;;16.50;99.90;;;;;;5094167;28;20051;-77
2022/06/11 02:44:27;;;;;;;3.55;2.00;;;16.50;99.90;;;;;;5094095;28;20110;-77
2022/06/11 02:46:52;;;;;;;4.65;1.90;;;16.30;99.90;;;;;;5094599;28;20629;-77
2022/06/11 02:49:20;;;;;;;2.35;1.90;;;16.40;99.90;;;;;;5093888;28;20166;-77
2022/06/11 02:51:47;;;;;;;3.55;2.40;;;16.40;99.90;;;;;;5095060;28;20035;-78
2022/06/11 02:54:14;;;;;;;5.35;2.47;;;16.40;99.90;;;;;;5095663;28;20036;-78
2022/06/11 02:56:41;;;;;;;3.45;2.17;;;16.40;99.90;;;;;;5093628;28;20028;-79
2022/06/11 02:59:07;;;;;;;5.10;2.50;;;16.40;99.90;;;;;;5095015;28;20031;-78
2022/06/11 03:01:34;;;;;;;7.35;2.50;;;16.30;99.90;;;;;;5093999;28;20401;-78
2022/06/11 03:04:01;;;;;;;10.40;2.42;;;16.20;99.90;;;;;;5094098;28;20039;-78
2022/06/11 03:06:29;;;;;;;4.03;2.20;;;16.20;99.90;;;;;;5093815;28;20031;-78
2022/06/11 03:08:56;;;;;;;5.63;2.15;;;16.20;99.90;;;;;;5093202;28;20050;-78
2022/06/11 03:11:23;;;;;;;4.80;2.33;;;16.30;99.90;;;;;;5093634;28;20039;-77
2022/06/11 03:13:49;;;;;;;6.05;2.30;;;16.40;99.90;;;;;;5092883;28;20097;-79
2022/06/11 03:16:14;;;;;;;7.55;2.50;;;16.40;99.90;;;;;;5076772;28;20465;-78
2022/06/11 03:18:40;;;;;;;4.55;2.47;;;16.30;99.90;;;;;;5093079;28;20023;-79
2022/06/11 03:21:05;;;;;;;6.90;2.72;;;16.30;99.90;;;;;;5076660;28;20040;-78
2022/06/11 03:23:31;;;;;;;4.30;2.15;;;16.30;99.90;;;;;;5076333;28;20028;-78
2022/06/11 03:25:57;;;;;;;3.83;2.17;;;16.20;99.90;;;;;;5094220;28;20035;-78
2022/06/11 03:28:26;;;;;;;3.65;2.42;;;16.10;99.90;;;;;;5094619;28;20097;-78
2022/06/11 03:30:53;;;;;;;3.63;2.30;;;16.10;99.90;;;;;;5093875;28;20024;-78
2022/06/11 03:33:19;;;;;;;4.07;2.47;;;16.10;99.90;;;;;;5076286;28;20150;-78
2022/06/11 03:35:46;;;;;;;4.70;2.50;;;16.10;99.90;;;;;;5075851;28;20031;-77
2022/06/11 03:38:12;;;;;;;4.22;2.55;;;16.10;99.90;;;;;;5075882;28;20020;-77
2022/06/11 03:40:38;;;;;;;4.50;2.50;;;16.10;99.90;;;;;;5093633;28;20435;-78
2022/06/11 03:43:04;;;;;;;3.53;2.50;;;16.10;99.90;;;;;;5092967;28;20024;-78
2022/06/11 03:45:30;;;;;;;5.40;2.45;;;16.00;99.90;;;;;;5075769;28;20028;-77
2022/06/11 03:47:56;;;;;;;9.13;2.95;;;16.00;99.90;;;;;;5074763;28;20138;-76
2022/06/11 03:50:26;;;;;;;4.65;2.22;;;16.00;99.90;;;;;;5093882;28;20035;-77
2022/06/11 03:52:52;;;;;;;4.22;2.70;;;16.00;99.90;;;;;;5075241;28;20032;-76
2022/06/11 03:55:19;;;;;;;6.93;2.30;;;16.00;99.90;;;;;;5075665;28;20020;-76
2022/06/11 03:57:45;;;;;;;4.55;2.40;;;16.10;99.90;;;;;;5093223;28;20358;-76
2022/06/11 04:00:14;;;;;;;5.93;2.60;;;16.20;99.90;;;;;;5093134;28;20032;-76
2022/06/11 04:02:40;;;;;;;4.68;2.20;;;16.20;99.90;;;;;;5075203;28;20058;-76
2022/06/11 04:05:07;;;;;;;6.47;2.25;;;16.20;99.90;;;;;;5075739;28;20027;-76
2022/06/11 04:07:33;;;;;;;5.55;2.55;;;16.20;99.90;;;;;;5075530;28;20073;-76
2022/06/11 04:09:59;;;;;;;3.97;2.03;;;16.20;99.90;;;;;;5092842;28;20039;-76
2022/06/11 04:12:25;;;;;;;3.92;2.20;;;16.20;99.90;;;;;;5093484;28;20035;-76
2022/06/11 04:14:51;;;;;;;3.45;2.03;;;16.20;99.90;;;;;;5092480;28;20056;-76
2022/06/11 04:17:26;;;;;;;6.53;2.40;;;16.20;99.90;;;;;;5093370;28;20038;-76
2022/06/11 04:19:54;;;;;;;4.82;2.42;;;16.20;99.90;;;;;;5074618;28;20059;-75
2022/06/11 04:22:20;;;;;;;2.97;2.05;;;16.20;99.90;;;;;;5075188;28;20476;-76
2022/06/11 04:24:46;;;;;;;3.63;2.13;;;16.20;99.90;;;;;;5074480;28;20028;-76
2022/06/11 04:27:15;;;;;;;5.53;2.30;;;16.20;99.90;;;;;;5093381;28;20035;-76
2022/06/11 04:29:45;;;;;;;6.00;2.53;;;16.20;99.90;;;;;;5074757;28;20024;-77
2022/06/11 04:32:12;;;;;;;4.90;2.10;;;16.20;99.90;;;;;;5093094;28;20016;-76
2022/06/11 04:34:39;;;;;;;8.60;2.45;;;16.20;99.90;;;;;;5075024;28;20032;-76
2022/06/11 04:37:06;;;;;;;3.38;2.15;;;16.20;99.90;;;;;;5075064;28;20124;-76
2022/06/11 04:39:32;;;;;;;2.95;2.40;;;16.20;99.90;;;;;;5093044;28;20024;-76
2022/06/11 04:41:59;;;;;;;6.05;2.10;;;16.20;99.90;;;;;;5074521;28;20028;-76
2022/06/11 04:44:26;;;;;;;9.15;2.50;;;16.20;99.90;;;;;;5093044;28;20036;-76
2022/06/11 04:46:53;;;;;;;6.70;2.22;;;16.20;99.90;;;;;;5092279;28;20031;-76
2022/06/11 04:49:19;;;;;;;4.93;2.90;;;16.20;99.90;;;;;;5075196;28;20024;-76
2022/06/11 04:51:45;;;;;;;4.38;2.13;;;16.20;99.90;;;;;;5078458;28;20099;-76
2022/06/11 04:54:11;;;;;;;6.50;2.20;;;16.20;99.90;;;;;;5097316;28;20028;-75
2022/06/11 04:56:37;;;;;;;6.75;2.40;;;16.30;99.90;;;;;;5078952;28;20028;-76
2022/06/11 04:59:04;;;;;;;8.07;2.10;;;16.30;99.90;;;;;;5096604;28;20115;-76
2022/06/11 05:01:30;;;;;;;10.05;2.38;;;16.30;99.90;;;;;;5078761;28;20044;-76
2022/06/11 05:03:56;;;;;;;7.78;1.90;;;16.30;99.90;;;;;;5095484;28;20024;-76
2022/06/11 05:06:25;;;;;;;6.97;2.40;;;16.30;99.90;;;;;;5095701;28;20077;-75
2022/06/11 05:08:51;;;;;;;6.47;2.58;;;16.40;99.90;;;;;;5078487;28;20051;-76
2022/06/11 05:11:17;;;;;;;2.75;2.05;;;16.40;99.90;;;;;;5096552;28;20028;-76
2022/06/11 05:13:42;;;;;;;2.65;2.00;;;16.50;99.90;;;;;;5096767;28;20028;-77
2022/06/11 05:16:11;;;;;;;4.10;2.00;;;16.50;99.90;;;;;;5112051;28;20075;-76
2022/06/11 05:18:37;;;;;;;4.55;2.20;;;16.50;99.90;;;;;;5112677;28;20024;-76
2022/06/11 05:21:03;;;;;;;3.25;2.58;;;16.60;99.90;;;;;;5095112;28;20400;-76
2022/06/11 05:23:29;;;;;;;3.00;1.90;;;16.60;99.90;;;;;;5095688;28;20036;-76
2022/06/11 05:25:55;;;;;;;4.55;2.28;;;16.60;99.90;;;;;;5111681;28;20024;-76
2022/06/11 05:28:26;;;;;;;3.65;2.10;;;16.70;99.90;;;;;;5095714;28;20024;-76
2022/06/11 05:30:52;;;;;;;5.80;2.53;;;16.70;99.90;;;;;;5096307;28;20028;-76
2022/06/11 05:33:19;;;;;;;3.63;2.20;;;16.60;99.90;;;;;;5095412;28;20142;-76
2022/06/11 05:35:45;;;;;;;4.15;2.40;;;16.70;99.90;;;;;;5095900;28;20031;-76
2022/06/11 05:38:15;;;;;;;4.85;1.92;;;16.80;99.90;;;;;;5095285;28;20473;-76
2022/06/11 05:40:43;;;;;;;7.88;1.80;;;17.00;99.90;;;;;;5096822;28;20098;-76
2022/06/11 05:43:09;;;;;;;3.08;1.52;;;17.00;99.90;;;;;;5095292;28;20115;-76
2022/06/11 05:45:42;;;;;;;5.97;1.90;;;17.00;99.90;;;;;;5096412;28;20032;-76
2022/06/11 05:48:08;;;;;;;5.40;1.80;;;17.10;99.90;;;;;;5096014;28;20024;-76
2022/06/11 05:50:38;;;;;;;3.35;1.58;;;17.10;99.90;;;;;;5095202;28;20089;-76
2022/06/11 05:53:06;;;;;;;2.67;1.55;;;17.20;99.90;;;;;;5094283;28;20044;-76
2022/06/11 05:55:37;;;;;;;3.80;1.55;;;17.20;99.90;;;;;;5095951;28;20024;-76
2022/06/11 05:58:05;;;;;;;7.03;1.50;;;17.30;99.90;;;;;;5095445;28;20055;-77
2022/06/11 06:00:32;;;;;;;5.82;1.67;;;17.30;99.90;;;;;;5096030;28;20119;-77
2022/06/11 06:02:58;;;;;;;3.30;1.60;;;17.40;99.90;;;;;;5093230;28;20031;-77
2022/06/11 06:05:27;;;;;;;6.53;1.95;;;17.40;99.90;;;;;;5094785;28;20020;-76
2022/06/11 06:07:53;;;;;;;5.15;2.05;;;17.50;99.90;;;;;;5111100;28;20032;-77
2022/06/11 06:10:19;;;;;;;3.70;2.03;;;17.40;99.90;;;;;;5095846;28;20036;-77
2022/06/11 06:12:45;;;;;;;7.15;1.98;;;17.50;99.90;;;;;;5093761;28;20059;-81
2022/06/11 06:15:14;;;;;;;4.25;1.92;;;17.60;99.90;;;;;;5094566;28;20129;-78
2022/06/11 06:17:41;;;;;;;4.97;2.03;;;17.60;99.90;;;;;;5094514;28;20023;-79
2022/06/11 06:20:10;;;;;;;3.00;1.50;;;17.60;99.90;;;;;;5095132;28;20064;-78
2022/06/11 06:22:36;;;;;;;6.80;1.77;;;17.70;99.90;;;;;;5094173;28;20031;-78
2022/06/11 06:25:03;;;;;;;3.50;1.65;;;17.70;99.90;;;;;;5094851;28;20107;-78
2022/06/11 06:27:29;;;;;;;3.45;1.55;;;17.80;99.90;;;;;;5111130;28;20031;-78
2022/06/11 06:29:55;;;;;;;5.10;1.75;;;17.80;99.90;;;;;;5095037;28;20085;-77
2022/06/11 06:32:21;;;;;;;7.45;1.88;;;17.90;99.90;;;;;;5111240;28;20407;-76
2022/06/11 06:34:46;;;;;;;4.40;1.85;;;17.90;99.90;;;;;;5093682;28;20028;-79
2022/06/11 06:37:12;;;;;;;2.45;1.80;;;18.00;99.90;;;;;;5094229;28;20035;-76
2022/06/11 06:39:38;;;;;;;4.15;1.70;;;18.10;99.90;;;;;;5095477;28;20020;-76
2022/06/11 06:42:06;;;;;;;3.78;1.40;;;18.10;99.90;;;;;;5094811;28;20024;-76
2022/06/11 06:44:32;;;;;;;4.68;1.30;;;18.10;99.90;;;;;;5095325;28;20028;-76
2022/06/11 06:46:57;;;;;;;2.55;1.92;;;18.20;99.90;;;;;;5093337;28;20024;-75
2022/06/11 06:49:23;;;;;;;6.57;1.83;;;18.20;99.90;;;;;;5093826;28;20073;-75
2022/06/11 06:51:49;;;;;;;4.85;2.08;;;18.30;99.90;;;;;;5093287;28;20039;-77
2022/06/11 06:54:16;;;;;;;5.82;1.70;;;18.30;99.90;;;;;;5093668;28;20103;-76
2022/06/11 06:56:41;;;;;;;7.85;2.00;;;18.40;99.90;;;;;;5093634;28;20482;-77
2022/06/11 06:59:07;;;;;;;6.18;1.70;;;18.40;99.90;;;;;;5094597;28;20273;-76
2022/06/11 07:01:33;;;;;;;4.65;1.85;;;18.50;99.90;;;;;;5093554;28;20127;-76
2022/06/11 07:03:59;;;;;;;4.55;2.55;;;18.60;99.90;;;;;;5093046;28;20028;-77
2022/06/11 07:06:25;;;;;;;3.67;1.90;;;18.70;99.90;;;;;;5093574;28;20503;-78
2022/06/11 07:08:52;;;;;;;3.65;1.52;;;18.70;99.90;;;;;;5093527;28;20149;-78
2022/06/11 07:11:19;;;;;;;5.20;1.50;;;18.80;99.90;;;;;;5093613;28;20064;-78
2022/06/11 07:13:45;;;;;;;5.80;1.80;;;18.90;99.90;;;;;;5094602;28;20051;-78
2022/06/11 07:16:13;;;;;;;6.57;1.60;;;18.90;99.90;;;;;;5092814;28;20551;-78
2022/06/11 07:18:51;;;;;;;2.60;1.50;;;19.00;99.90;;;;;;5093486;28;20032;-78
2022/06/11 07:21:32;;;;;;;4.00;1.67;;;19.10;99.90;;;;;;5094696;28;20031;-78
2022/06/11 07:24:00;;;;;;;;;;;19.00;99.90;;;;;;5093292;28;20040;-78
2022/06/11 07:26:34;;;;;;;4.18;1.60;;;19.00;99.90;;;;;;5093397;28;20295;-78
2022/06/11 07:29:21;;;;;;;3.58;1.73;;;19.10;99.90;;;;;;5093018;28;20027;-78
2022/06/11 07:31:50;;;;;;;3.85;1.67;;;19.10;99.90;;;;;;5093406;28;20028;-78
2022/06/11 07:34:17;;;;;;;6.95;1.85;;;19.20;99.90;;;;;;5093029;28;20031;-78
2022/06/11 07:36:43;;;;;;;7.78;1.40;;;19.20;99.90;;;;;;5093539;28;20028;-77
2022/06/11 07:39:08;;;;;;;6.15;1.70;;;19.30;99.90;;;;;;5109726;28;20358;-77
2022/06/11 07:41:34;;;;;;;2.67;1.52;;;19.40;99.90;;;;;;5093061;28;20054;-78
2022/06/11 07:44:00;;;;;;;5.35;1.85;;;19.40;99.90;;;;;;5094494;28;20024;-77
2022/06/11 07:46:25;;;;;;;5.60;1.75;;;19.50;99.90;;;;;;5090034;28;20457;-77
2022/06/11 07:48:51;;;;;;;4.40;1.75;;;19.60;99.90;;;;;;5091440;28;20480;-78
2022/06/11 07:51:18;;;;;;;4.80;1.70;;;19.60;99.90;;;;;;5091963;28;20035;-77
2022/06/11 07:53:46;;;;;;;3.97;1.65;;;19.70;99.90;;;;;;5091695;28;20024;-77
2022/06/11 07:56:12;;;;;;;2.88;1.70;;;19.80;99.90;;;;;;5108460;28;20077;-77
2022/06/11 07:58:38;;;;;;;3.40;1.85;;;19.70;99.90;;;;;;5091733;28;20024;-76
2022/06/11 08:01:05;;;;;;;3.50;1.42;;;19.80;99.90;;;;;;5091467;28;20419;-76
2022/06/11 08:03:32;;;;;;;4.65;1.50;;;19.90;99.90;;;;;;5109104;28;20058;-77
2022/06/11 08:06:00;;;;;;;3.65;1.60;;;19.90;99.40;;;;;;5091711;28;20043;-76
2022/06/11 08:08:26;;;;;;;4.85;2.05;;;19.90;99.20;;;;;;5100632;28;20377;-76
2022/06/11 08:10:52;;;;;;;6.28;2.30;;;20.00;99.40;;;;;;5092850;28;20034;-77
2022/06/11 08:13:18;;;;;;;3.60;1.55;;;20.10;99.40;;;;;;5108883;28;20110;-77
2022/06/11 08:15:46;;;;;;;5.55;1.65;;;20.20;99.40;;;;;;5108345;28;20040;-77
2022/06/11 08:18:12;;;;;;;5.45;1.98;;;20.20;98.90;;;;;;5092120;28;20052;-79
2022/06/11 08:20:39;;;;;;;3.28;1.60;;;20.20;98.50;;;;;;5102125;28;20032;-77
2022/06/11 08:23:06;;;;;;;2.80;1.48;;;20.30;98.20;;;;;;5092469;28;20420;-78
2022/06/11 08:25:32;;;;;;;5.72;1.90;;;20.30;98.30;;;;;;5097027;28;20406;-78
2022/06/11 08:27:59;;;;;;;2.58;1.35;;;20.20;98.20;;;;;;5091510;28;20119;-77
2022/06/11 08:30:26;;;;;;;2.78;1.17;;;20.40;97.80;;;;;;5100058;28;20043;-77
2022/06/11 08:32:53;;;;;;;3.75;1.55;;;20.40;98.50;;;;;;5108671;28;20111;-77
2022/06/11 08:35:24;;;;;;;5.40;1.50;;;20.40;98.20;;;;;;5091889;28;20027;-78
2022/06/11 08:37:50;;;;;;;3.72;1.73;;;20.40;97.90;;;;;;5100050;28;20093;-76
2022/06/11 08:40:40;;;;;;;2.78;1.35;;;20.50;97.50;;;;;;5096461;28;20066;-77
2022/06/11 08:43:32;;;;;;;2.88;1.50;;;20.40;97.50;;;;;;5086544;28;20020;-76
2022/06/11 08:46:07;;;;;;;4.65;1.65;;;20.40;97.50;;;;;;5070615;28;20028;-77
2022/06/11 08:48:41;;;;;;;4.30;1.52;;;20.40;97.50;;;;;;5091107;28;20024;-78
2022/06/11 08:51:30;;;;;;;5.35;1.67;;;20.60;96.90;;;;;;5087555;28;20024;-77
2022/06/11 08:54:01;;;;;;;5.32;1.48;;;20.50;97.20;;;;;;5083911;28;20054;-77
2022/06/11 08:56:40;;;;;;;7.13;2.63;;;20.50;97.50;;;;;;5091909;28;20078;-76
2022/06/11 08:59:12;;;;;;;15.18;5.82;;;20.60;97.10;;;;;;5090567;28;20431;-76
2022/06/11 09:01:51;;;;;;;7.75;2.67;;;20.60;97.20;;;;;;5088614;28;20039;-76
2022/06/11 09:04:46;;;;;;;4.97;2.75;;;20.60;97.30;;;;;;5090764;28;20081;-77
2022/06/11 09:07:37;;;;;;;6.88;2.00;;;20.70;97.60;;;;;;5071187;28;20028;-76
2022/06/11 09:10:56;;;;;;;3.13;2.35;;;20.90;96.10;;;;;;5088001;28;20029;-78
2022/06/11 09:13:49;;;;;;;5.57;2.40;;;21.10;95.00;;;;;;5075789;28;20097;-77
2022/06/11 09:16:23;;;;;;;5.60;1.70;;;21.10;95.00;;;;;;5090464;28;20113;-76
2022/06/11 09:19:01;;;;;;;4.45;1.48;;;20.90;95.20;;;;;;5074845;28;20382;-79
2022/06/11 09:21:48;;;;;;;6.72;1.48;;;21.10;94.30;;;;;;5082833;28;20457;-78
2022/06/11 09:24:24;;;;;;;4.18;1.10;;;21.20;93.90;;;;;;5092078;28;20374;-77
2022/06/11 09:27:04;;;;;;;4.63;1.35;;;21.20;94.30;;;;;;5074921;28;20032;-77
2022/06/11 09:29:51;;;;;;;3.00;1.27;;;21.30;93.80;;;;;;5091983;28;20047;-77
2022/06/11 09:32:39;;;;;;;4.22;1.35;;;21.20;93.90;;;;;;5073995;28;20103;-76
2022/06/11 09:35:19;;;;;;;3.17;1.05;;;21.20;94.40;;;;;;5090963;28;20036;-76
2022/06/11 09:37:57;;;;;;;1.95;1.10;;;21.30;93.80;;;;;;5077373;28;20024;-76
2022/06/11 09:40:39;;;;;;;3.53;0.95;;;21.50;92.80;;;;;;5077763;28;20534;-76
2022/06/11 09:43:10;;;;;;;;;;;21.60;91.70;;;;;;5078097;28;20107;-76
2022/06/11 09:45:46;;;;;;;3.60;1.30;;;21.50;92.00;;;;;;5077751;28;19912;-77
2022/06/11 09:48:30;;;;;;;4.20;0.90;;;21.60;92.00;;;;;;5076812;28;20066;-75
2022/06/11 09:51:20;;;;;;;1.25;0.93;;;21.60;91.50;;;;;;5079913;28;20081;-75
2022/06/11 09:54:02;;;;;;;2.75;1.23;;;21.70;91.50;;;;;;5086319;28;20089;-76
2022/06/11 09:56:49;;;;;;;2.92;1.40;;;21.70;91.60;;;;;;5079320;28;20020;-76
2022/06/11 09:59:28;;;;;;;5.03;1.30;;;21.90;91.60;;;;;;5086058;28;20016;-79
2022/06/11 10:01:57;;;;;;;2.22;1.23;;;22.00;91.80;;;;;;5088235;28;20108;-75
2022/06/11 10:04:29;;;;;;;4.25;1.05;;;22.00;91.30;;;;;;5086848;28;20165;-75
2022/06/11 10:07:06;;;;;;;3.88;0.95;;;22.00;90.70;;;;;;5100884;28;20019;-74
2022/06/11 10:09:40;;;;;;;1.45;0.70;;;22.00;90.00;;;;;;5085452;28;20026;-74
2022/06/11 10:12:21;;;;;;;2.50;0.90;;;22.10;88.30;;;;;;5083547;28;20024;-75
2022/06/11 10:15:03;;;;;;;3.38;0.88;;;22.10;86.90;;;;;;5104999;28;20040;-76
2022/06/11 10:17:46;;;;;;;2.30;0.70;;;22.30;85.50;;;;;;5104241;28;20069;-75
2022/06/11 10:20:24;;;;;;;2.03;0.80;;;22.30;85.50;;;;;;5105324;28;20035;-75
2022/06/11 10:23:00;;;;;;;3.03;1.05;;;22.30;87.30;;;;;;5094951;28;20115;-75
2022/06/11 10:25:35;;;;;;;2.58;1.15;;;22.30;87.20;;;;;;5077325;28;20094;-75
2022/06/11 10:28:13;;;;;;;4.22;0.80;;;22.50;87.80;;;;;;5093213;28;20028;-76
2022/06/11 10:30:42;;;;;;;3.50;1.20;;;22.40;87.60;;;;;;5103375;28;20028;-75
2022/06/11 10:33:22;;;;;;;2.03;1.13;;;22.40;87.50;;;;;;5082052;28;20039;-75
2022/06/11 10:35:56;;;;;;;4.20;0.90;;;22.50;86.00;;;;;;5078688;28;20032;-76
2022/06/11 10:38:58;;;;;;;2.67;0.68;;;22.50;84.20;;;;;;5081507;28;20051;-79
2022/06/11 10:41:43;;;;;;;;;;;22.40;81.80;;;;;;5096811;28;20032;-79
2022/06/11 10:44:27;;;;;;;4.05;0.70;;;22.50;81.60;;;;;;5097298;28;19927;-79
2022/06/11 10:46:52;;;;;;;1.48;0.75;;;22.60;82.50;;;;;;5096805;28;20453;-79
2022/06/11 10:49:22;;;;;;;2.05;0.98;;;22.60;82.20;;;;;;5087364;28;20077;-82
2022/06/11 10:52:01;;;;;;;4.50;1.13;;;22.80;82.70;;;;;;5088699;28;20114;-79
2022/06/11 10:54:26;;;;;;;2.85;0.90;;;23.00;81.10;;;;;;5077324;28;20035;-76
2022/06/11 10:56:56;;;;;;;2.28;1.20;;;23.00;80.30;;;;;;5076997;28;20024;-76
2022/06/11 10:59:41;;;;;;;4.10;1.00;;;23.10;79.00;;;;;;5076411;28;20070;-76
2022/06/11 11:02:31;;;;;;;2.75;1.05;;;23.10;79.40;;;;;;5091844;28;20132;-82
2022/06/11 11:05:02;;;;;;;5.25;1.10;;;23.10;79.60;;;;;;5077887;28;20016;-79
2022/06/11 11:07:40;;;;;;;2.22;1.30;;;23.00;78.90;;;;;;5077506;28;20032;-81
2022/06/11 11:10:23;;;;;;;2.90;0.90;;;23.20;78.70;;;;;;5095402;28;20066;-82
2022/06/11 11:12:56;;;;;;;3.90;1.02;;;23.20;77.50;;;;;;5078326;28;20039;-80
2022/06/11 11:15:26;;;;;;;3.50;1.10;;;23.20;78.40;;;;;;5080014;28;20109;-79
2022/06/11 11:17:56;;;;;;;5.05;0.95;;;23.30;75.90;;;;;;5094773;28;20077;-79
2022/06/11 11:20:39;;;;;;;2.57;0.80;;;23.50;76.00;;;;;;5093780;28;20525;-78
2022/06/11 11:23:09;;;;;;;3.55;0.90;;;23.40;76.50;;;;;;5090016;28;20059;-79
2022/06/11 11:25:49;;;;;;;1.48;0.82;;;23.40;76.90;;;;;;5094710;28;20020;-77
2022/06/11 11:28:23;;;;;;;5.50;1.00;;;23.50;77.80;;;;;;5091579;28;20047;-78
2022/06/11 11:31:16;;;;;;;2.38;1.00;;;23.60;74.50;;;;;;5093268;28;20540;-81
2022/06/11 11:33:57;;;;;;;3.38;1.13;;;23.70;76.00;;;;;;5086571;28;20031;-80
2022/06/11 11:36:26;;;;;;;1.85;0.90;;;23.70;75.30;;;;;;5089736;28;20758;-77
2022/06/11 11:39:00;;;;;;;2.80;1.10;;;23.70;74.70;;;;;;5094205;28;20465;-78
2022/06/11 11:41:33;;;;;;;5.05;0.98;;;23.80;74.10;;;;;;5092877;28;20127;-78
2022/06/11 11:43:59;;;;;;;3.08;0.98;;;23.70;75.50;;;;;;5093991;28;20028;-77
2022/06/11 11:46:31;;;;;;;1.90;0.80;;;23.90;75.80;;;;;;5093227;28;20027;-78
2022/06/11 11:49:00;;;;;;;1.60;0.90;;;23.90;77.00;;;;;;5093579;28;20536;-80
2022/06/11 11:51:31;;;;;;;1.70;0.63;;;24.10;73.20;;;;;;5094353;28;20080;-78
2022/06/11 11:54:11;;;;;;;6.55;1.02;;;24.20;73.10;;;;;;5094741;28;20063;-78
2022/06/11 11:56:46;;;;;;;0.95;0.60;;;24.30;71.60;;;;;;5091621;28;20027;-79
2022/06/11 11:59:32;;;;;;;2.53;0.93;;;24.30;73.60;;;;;;5110954;28;20067;-79
2022/06/11 12:02:19;;;;;;;1.17;0.50;;;24.50;71.60;;;;;;5094109;28;20032;-80
2022/06/11 12:05:30;;;;;;;2.42;0.85;;;24.40;72.80;;;;;;5088363;28;20020;-79
2022/06/11 12:07:58;;;;;;;2.85;0.80;;;24.50;73.00;;;;;;4996959;28;20376;-81
2022/06/11 12:10:37;;;;;;;1.92;0.90;;;24.50;72.30;;;;;;5014358;28;20190;-82
2022/06/11 12:13:17;;;;;;;1.48;0.80;;;24.50;70.70;;;;;;5014119;28;20096;-80
2022/06/11 12:15:53;;;;;;;5.45;0.88;;;24.60;72.10;;;;;;4995603;28;20501;-76
2022/06/11 12:18:26;;;;;;;2.38;0.82;;;24.70;73.20;;;;;;5010724;28;20491;-78
2022/06/11 12:21:00;;;;;;;1.42;0.70;;;24.80;72.10;;;;;;4995448;28;20049;-80
2022/06/11 12:23:44;;;;;;;4.88;0.73;;;24.90;69.00;;;;;;5011254;28;20030;-78
2022/06/11 12:26:28;;;;;;;4.18;0.70;;;25.00;70.90;;;;;;5011344;28;20033;-79
2022/06/11 12:28:58;;;;;;;2.83;0.47;;;25.20;68.70;;;;;;5011313;28;20034;-78
2022/06/11 12:32:08;;;;;;;2.70;0.70;;;25.40;69.50;;;;;;5010609;28;20646;-78
2022/06/11 12:34:56;;;;;;;1.75;0.88;;;25.50;69.70;;;;;;4994652;28;20057;-77
2022/06/11 12:37:25;;;;;;;6.47;1.20;;;25.70;68.10;;;;;;4999706;28;20121;-78
2022/06/11 12:40:15;;;;;;;3.22;1.00;;;25.80;65.60;;;;;;5087106;28;20074;-78
2022/06/11 12:42:45;;;;;;;2.47;0.70;;;25.90;65.60;;;;;;5104550;28;20020;-79
2022/06/11 12:46:02;;;;;;;2.70;1.23;;;26.00;65.90;;;;;;5099840;28;20016;-79
2022/06/11 12:48:31;;;;;;;2.13;0.70;;;26.10;66.90;;;;;;5058641;28;20066;-78
2022/06/11 12:51:04;;;;;;;1.10;0.60;;;26.30;64.00;;;;;;5107824;28;20032;-78
2022/06/11 12:53:48;;;;;;;4.28;0.80;;;26.40;63.30;;;;;;5098620;28;20037;-78
2022/06/11 12:56:30;;;;;;;3.08;0.60;;;26.40;64.10;;;;;;5102569;28;20024;-78
2022/06/11 12:59:11;;;;;;;4.50;1.02;;;26.60;63.10;;;;;;5090738;28;20031;-78
2022/06/11 13:02:01;;;;;;;2.53;0.80;;;26.80;62.40;;;;;;5092268;28;20032;-78
2022/06/11 13:04:28;;;;;;;3.42;1.15;;;27.00;60.50;;;;;;5074023;28;20020;-78
2022/06/11 13:07:14;;;;;;;4.40;0.90;;;27.10;60.00;;;;;;5078180;28;20550;-79
2022/06/11 13:09:58;;;;;;;3.78;1.00;;;27.20;60.60;;;;;;5094930;28;20028;-78
2022/06/11 13:12:45;;;;;;;2.85;1.10;;;27.40;60.70;;;;;;5105111;28;20028;-78
2022/06/11 13:15:26;;;;;;;2.55;0.70;;;27.60;62.00;;;;;;5087507;28;20484;-80
2022/06/11 13:18:19;;;;;;;3.30;0.70;;;27.80;58.60;;;;;;5075806;28;20031;-79